sensor_id;sensor_type;location;lat;lon;timestamp;P1;durP1;ratioP1;P2;durP2;ratioP2
27039;SDS011;14589;51.578;7.306;2022-07-06T00:02:24;6.38;;;1.70;;
27039;SDS011;14589;51.578;7.306;2022-07-06T00:04:49;3.33;;;1.30;;
27039;SDS011;14589;51.578;7.306;2022-07-06T00:07:14;4.45;;;1.52;;
27039;SDS011;14589;51.578;7.306;2022-07-06T00:09:41;3.53;;;1.42;;
27039;SDS011;14589;51.578;7.306;2022-07-06T00:12:06;2.40;;;1.58;;
27039;SDS011;14589;51.578;7.306;2022-07-06T00:14:32;3.40;;;1.60;;
27039;SDS011;14589;51.578;7.306;2022-07-06T00:16:58;2.53;;;1.33;;
27039;SDS011;14589;51.578;7.306;2022-07-06T00:19:24;3.45;;;1.60;;
27039;SDS011;14589;51.578;7.306;2022-07-06T00:21:49;4.03;;;2.28;;
27039;SDS011;14589;51.578;7.306;2022-07-06T00:24:15;4.40;;;1.48;;
27039;SDS011;14589;51.578;7.306;2022-07-06T00:26:43;4.70;;;1.58;;
27039;SDS011;14589;51.578;7.306;2022-07-06T00:29:09;4.72;;;1.55;;
27039;SDS011;14589;51.578;7.306;2022-07-06T00:31:34;3.92;;;1.40;;
27039;SDS011;14589;51.578;7.306;2022-07-06T00:34:00;4.05;;;1.70;;
27039;SDS011;14589;51.578;7.306;2022-07-06T00:36:25;2.63;;;1.40;;
27039;SDS011;14589;51.578;7.306;2022-07-06T00:38:51;4.82;;;1.33;;
27039;SDS011;14589;51.578;7.306;2022-07-06T00:41:16;1.83;;;1.38;;
27039;SDS011;14589;51.578;7.306;2022-07-06T00:43:52;3.35;;;1.40;;
27039;SDS011;14589;51.578;7.306;2022-07-06T00:46:22;6.65;;;1.83;;
27039;SDS011;14589;51.578;7.306;2022-07-06T00:48:52;3.38;;;1.50;;
27039;SDS011;14589;51.578;7.306;2022-07-06T00:51:18;4.93;;;1.58;;
27039;SDS011;14589;51.578;7.306;2022-07-06T00:53:43;6.40;;;2.10;;
27039;SDS011;14589;51.578;7.306;2022-07-06T00:56:10;3.50;;;1.60;;
27039;SDS011;14589;51.578;7.306;2022-07-06T00:58:35;3.95;;;1.50;;
27039;SDS011;14589;51.578;7.306;2022-07-06T01:01:01;5.40;;;1.83;;
27039;SDS011;14589;51.578;7.306;2022-07-06T01:03:26;5.43;;;1.40;;
27039;SDS011;14589;51.578;7.306;2022-07-06T01:05:52;5.32;;;1.80;;
27039;SDS011;14589;51.578;7.306;2022-07-06T01:08:17;9.23;;;2.20;;
27039;SDS011;14589;51.578;7.306;2022-07-06T01:10:43;2.65;;;1.70;;
27039;SDS011;14589;51.578;7.306;2022-07-06T01:13:08;4.68;;;1.70;;
27039;SDS011;14589;51.578;7.306;2022-07-06T01:15:34;6.88;;;1.95;;
27039;SDS011;14589;51.578;7.306;2022-07-06T01:17:59;1.92;;;1.63;;
27039;SDS011;14589;51.578;7.306;2022-07-06T01:20:29;3.50;;;1.65;;
27039;SDS011;14589;51.578;7.306;2022-07-06T01:22:54;2.85;;;1.73;;
27039;SDS011;14589;51.578;7.306;2022-07-06T01:25:23;7.25;;;1.90;;
27039;SDS011;14589;51.578;7.306;2022-07-06T01:27:48;3.30;;;1.52;;
27039;SDS011;14589;51.578;7.306;2022-07-06T01:30:17;4.40;;;1.70;;
27039;SDS011;14589;51.578;7.306;2022-07-06T01:32:44;5.53;;;1.80;;
27039;SDS011;14589;51.578;7.306;2022-07-06T01:35:10;2.30;;;1.45;;
27039;SDS011;14589;51.578;7.306;2022-07-06T01:37:38;4.72;;;1.60;;
27039;SDS011;14589;51.578;7.306;2022-07-06T01:40:04;3.08;;;1.48;;
27039;SDS011;14589;51.578;7.306;2022-07-06T01:42:30;3.05;;;1.63;;
27039;SDS011;14589;51.578;7.306;2022-07-06T01:44:56;4.50;;;1.58;;
27039;SDS011;14589;51.578;7.306;2022-07-06T01:47:22;4.30;;;1.50;;
27039;SDS011;14589;51.578;7.306;2022-07-06T01:49:49;3.05;;;1.60;;
27039;SDS011;14589;51.578;7.306;2022-07-06T01:52:15;4.95;;;1.75;;
27039;SDS011;14589;51.578;7.306;2022-07-06T01:54:40;3.50;;;1.35;;
27039;SDS011;14589;51.578;7.306;2022-07-06T01:57:06;2.08;;;1.40;;
27039;SDS011;14589;51.578;7.306;2022-07-06T01:59:32;3.50;;;1.50;;
27039;SDS011;14589;51.578;7.306;2022-07-06T02:01:57;3.10;;;1.40;;
27039;SDS011;14589;51.578;7.306;2022-07-06T02:04:23;5.03;;;1.63;;
27039;SDS011;14589;51.578;7.306;2022-07-06T02:06:49;5.50;;;1.70;;
27039;SDS011;14589;51.578;7.306;2022-07-06T02:09:15;3.58;;;1.40;;
27039;SDS011;14589;51.578;7.306;2022-07-06T02:11:41;3.92;;;1.60;;
27039;SDS011;14589;51.578;7.306;2022-07-06T02:14:07;2.78;;;1.40;;
27039;SDS011;14589;51.578;7.306;2022-07-06T02:16:33;3.40;;;1.60;;
27039;SDS011;14589;51.578;7.306;2022-07-06T02:18:58;1.77;;;1.20;;
27039;SDS011;14589;51.578;7.306;2022-07-06T02:21:26;4.28;;;1.60;;
27039;SDS011;14589;51.578;7.306;2022-07-06T02:23:52;3.35;;;1.73;;
27039;SDS011;14589;51.578;7.306;2022-07-06T02:26:17;2.55;;;1.40;;
27039;SDS011;14589;51.578;7.306;2022-07-06T02:28:43;4.45;;;1.50;;
27039;SDS011;14589;51.578;7.306;2022-07-06T02:31:11;4.30;;;1.90;;
27039;SDS011;14589;51.578;7.306;2022-07-06T02:33:38;3.17;;;1.60;;
27039;SDS011;14589;51.578;7.306;2022-07-06T02:36:04;3.08;;;1.98;;
27039;SDS011;14589;51.578;7.306;2022-07-06T02:38:29;3.47;;;1.33;;
27039;SDS011;14589;51.578;7.306;2022-07-06T02:40:56;6.18;;;1.90;;
27039;SDS011;14589;51.578;7.306;2022-07-06T02:43:21;2.92;;;1.27;;
27039;SDS011;14589;51.578;7.306;2022-07-06T02:45:48;4.43;;;1.30;;
27039;SDS011;14589;51.578;7.306;2022-07-06T02:48:15;1.83;;;1.20;;
27039;SDS011;14589;51.578;7.306;2022-07-06T02:50:43;2.67;;;1.38;;
27039;SDS011;14589;51.578;7.306;2022-07-06T02:53:08;2.67;;;1.42;;
27039;SDS011;14589;51.578;7.306;2022-07-06T02:55:34;3.78;;;1.50;;
27039;SDS011;14589;51.578;7.306;2022-07-06T02:58:00;2.00;;;1.70;;
27039;SDS011;14589;51.578;7.306;2022-07-06T03:00:25;4.18;;;1.40;;
27039;SDS011;14589;51.578;7.306;2022-07-06T03:02:52;3.08;;;1.40;;
27039;SDS011;14589;51.578;7.306;2022-07-06T03:05:18;1.95;;;1.17;;
27039;SDS011;14589;51.578;7.306;2022-07-06T03:07:43;2.15;;;1.60;;
27039;SDS011;14589;51.578;7.306;2022-07-06T03:10:09;2.13;;;1.10;;
27039;SDS011;14589;51.578;7.306;2022-07-06T03:12:35;2.85;;;1.30;;
27039;SDS011;14589;51.578;7.306;2022-07-06T03:15:01;2.03;;;1.33;;
27039;SDS011;14589;51.578;7.306;2022-07-06T03:17:28;1.55;;;1.08;;
27039;SDS011;14589;51.578;7.306;2022-07-06T03:19:53;1.20;;;1.10;;
27039;SDS011;14589;51.578;7.306;2022-07-06T03:22:19;2.25;;;1.30;;
27039;SDS011;14589;51.578;7.306;2022-07-06T03:24:45;2.28;;;1.20;;
27039;SDS011;14589;51.578;7.306;2022-07-06T03:27:11;1.30;;;1.08;;
27039;SDS011;14589;51.578;7.306;2022-07-06T03:29:36;1.92;;;1.27;;
27039;SDS011;14589;51.578;7.306;2022-07-06T03:32:03;4.05;;;1.20;;
27039;SDS011;14589;51.578;7.306;2022-07-06T03:34:29;2.20;;;1.40;;
27039;SDS011;14589;51.578;7.306;2022-07-06T03:36:55;2.65;;;1.65;;
27039;SDS011;14589;51.578;7.306;2022-07-06T03:39:21;3.63;;;1.67;;
27039;SDS011;14589;51.578;7.306;2022-07-06T03:41:47;4.68;;;1.70;;
27039;SDS011;14589;51.578;7.306;2022-07-06T03:44:12;4.03;;;1.50;;
27039;SDS011;14589;51.578;7.306;2022-07-06T03:46:38;3.15;;;1.60;;
27039;SDS011;14589;51.578;7.306;2022-07-06T03:49:03;3.58;;;1.48;;
27039;SDS011;14589;51.578;7.306;2022-07-06T03:51:29;4.35;;;1.50;;
27039;SDS011;14589;51.578;7.306;2022-07-06T03:53:54;6.07;;;2.00;;
27039;SDS011;14589;51.578;7.306;2022-07-06T03:56:20;3.53;;;1.40;;
27039;SDS011;14589;51.578;7.306;2022-07-06T03:59:00;7.65;;;1.90;;
27039;SDS011;14589;51.578;7.306;2022-07-06T04:01:28;3.67;;;1.40;;
27039;SDS011;14589;51.578;7.306;2022-07-06T04:03:55;6.68;;;1.83;;
27039;SDS011;14589;51.578;7.306;2022-07-06T04:06:21;8.57;;;1.70;;
27039;SDS011;14589;51.578;7.306;2022-07-06T04:08:46;3.72;;;1.30;;
27039;SDS011;14589;51.578;7.306;2022-07-06T04:11:12;4.43;;;1.30;;
27039;SDS011;14589;51.578;7.306;2022-07-06T04:13:37;7.20;;;1.25;;
27039;SDS011;14589;51.578;7.306;2022-07-06T04:16:05;3.90;;;1.45;;
27039;SDS011;14589;51.578;7.306;2022-07-06T04:18:31;1.42;;;1.20;;
27039;SDS011;14589;51.578;7.306;2022-07-06T04:20:57;2.30;;;1.55;;
27039;SDS011;14589;51.578;7.306;2022-07-06T04:23:23;3.75;;;1.60;;
27039;SDS011;14589;51.578;7.306;2022-07-06T04:25:51;3.50;;;1.33;;
27039;SDS011;14589;51.578;7.306;2022-07-06T04:28:17;4.13;;;1.48;;
27039;SDS011;14589;51.578;7.306;2022-07-06T04:30:42;9.07;;;2.40;;
27039;SDS011;14589;51.578;7.306;2022-07-06T04:33:11;4.93;;;1.42;;
27039;SDS011;14589;51.578;7.306;2022-07-06T04:35:38;3.67;;;1.70;;
27039;SDS011;14589;51.578;7.306;2022-07-06T04:38:03;4.55;;;1.83;;
27039;SDS011;14589;51.578;7.306;2022-07-06T04:40:30;6.30;;;1.98;;
27039;SDS011;14589;51.578;7.306;2022-07-06T04:43:00;5.57;;;1.90;;
27039;SDS011;14589;51.578;7.306;2022-07-06T04:45:27;5.82;;;2.30;;
27039;SDS011;14589;51.578;7.306;2022-07-06T04:47:53;7.45;;;2.33;;
27039;SDS011;14589;51.578;7.306;2022-07-06T04:50:18;7.40;;;2.13;;
27039;SDS011;14589;51.578;7.306;2022-07-06T04:52:45;5.55;;;1.20;;
27039;SDS011;14589;51.578;7.306;2022-07-06T04:55:10;6.22;;;1.80;;
27039;SDS011;14589;51.578;7.306;2022-07-06T04:57:36;4.05;;;1.75;;
27039;SDS011;14589;51.578;7.306;2022-07-06T05:00:03;3.00;;;1.73;;
27039;SDS011;14589;51.578;7.306;2022-07-06T05:02:30;3.92;;;1.52;;
27039;SDS011;14589;51.578;7.306;2022-07-06T05:04:56;3.13;;;1.55;;
27039;SDS011;14589;51.578;7.306;2022-07-06T05:07:21;5.43;;;2.10;;
27039;SDS011;14589;51.578;7.306;2022-07-06T05:09:47;4.13;;;1.70;;
27039;SDS011;14589;51.578;7.306;2022-07-06T05:12:12;5.65;;;2.08;;
27039;SDS011;14589;51.578;7.306;2022-07-06T05:14:38;5.55;;;1.98;;
27039;SDS011;14589;51.578;7.306;2022-07-06T05:17:05;11.07;;;2.40;;
27039;SDS011;14589;51.578;7.306;2022-07-06T05:19:31;8.40;;;1.73;;
27039;SDS011;14589;51.578;7.306;2022-07-06T05:21:57;5.80;;;1.83;;
27039;SDS011;14589;51.578;7.306;2022-07-06T05:24:22;11.30;;;1.98;;
27039;SDS011;14589;51.578;7.306;2022-07-06T05:26:48;4.00;;;1.60;;
27039;SDS011;14589;51.578;7.306;2022-07-06T05:29:15;4.53;;;2.10;;
27039;SDS011;14589;51.578;7.306;2022-07-06T05:31:42;6.00;;;1.80;;
27039;SDS011;14589;51.578;7.306;2022-07-06T05:34:07;4.38;;;1.58;;
27039;SDS011;14589;51.578;7.306;2022-07-06T05:36:33;4.88;;;1.63;;
27039;SDS011;14589;51.578;7.306;2022-07-06T05:38:58;4.30;;;1.58;;
27039;SDS011;14589;51.578;7.306;2022-07-06T05:41:24;3.88;;;1.58;;
27039;SDS011;14589;51.578;7.306;2022-07-06T05:43:50;6.38;;;1.98;;
27039;SDS011;14589;51.578;7.306;2022-07-06T05:46:15;9.75;;;1.73;;
27039;SDS011;14589;51.578;7.306;2022-07-06T05:48:40;5.22;;;2.22;;
27039;SDS011;14589;51.578;7.306;2022-07-06T05:51:25;4.32;;;1.52;;
27039;SDS011;14589;51.578;7.306;2022-07-06T05:53:51;6.28;;;2.05;;
27039;SDS011;14589;51.578;7.306;2022-07-06T05:56:18;7.60;;;1.55;;
27039;SDS011;14589;51.578;7.306;2022-07-06T05:58:44;5.45;;;1.50;;
27039;SDS011;14589;51.578;7.306;2022-07-06T06:01:10;4.93;;;1.52;;
27039;SDS011;14589;51.578;7.306;2022-07-06T06:03:37;8.73;;;1.70;;
27039;SDS011;14589;51.578;7.306;2022-07-06T06:06:04;3.20;;;1.40;;
27039;SDS011;14589;51.578;7.306;2022-07-06T06:08:29;6.60;;;1.73;;
27039;SDS011;14589;51.578;7.306;2022-07-06T06:10:55;4.70;;;1.30;;
27039;SDS011;14589;51.578;7.306;2022-07-06T06:13:22;5.75;;;2.28;;
27039;SDS011;14589;51.578;7.306;2022-07-06T06:15:48;6.05;;;1.52;;
27039;SDS011;14589;51.578;7.306;2022-07-06T06:18:15;4.18;;;1.75;;
27039;SDS011;14589;51.578;7.306;2022-07-06T06:20:42;8.60;;;2.03;;
27039;SDS011;14589;51.578;7.306;2022-07-06T06:23:08;8.18;;;1.50;;
27039;SDS011;14589;51.578;7.306;2022-07-06T06:25:34;5.07;;;1.52;;
27039;SDS011;14589;51.578;7.306;2022-07-06T06:28:01;4.90;;;1.85;;
27039;SDS011;14589;51.578;7.306;2022-07-06T06:30:28;12.18;;;1.75;;
27039;SDS011;14589;51.578;7.306;2022-07-06T06:33:13;6.45;;;1.48;;
27039;SDS011;14589;51.578;7.306;2022-07-06T06:35:43;3.78;;;0.90;;
27039;SDS011;14589;51.578;7.306;2022-07-06T06:38:09;6.10;;;1.30;;
27039;SDS011;14589;51.578;7.306;2022-07-06T06:40:36;5.97;;;1.35;;
27039;SDS011;14589;51.578;7.306;2022-07-06T06:43:02;5.88;;;1.25;;
27039;SDS011;14589;51.578;7.306;2022-07-06T06:45:29;4.20;;;1.30;;
27039;SDS011;14589;51.578;7.306;2022-07-06T06:47:55;9.25;;;1.52;;
27039;SDS011;14589;51.578;7.306;2022-07-06T06:50:20;1.80;;;0.80;;
27039;SDS011;14589;51.578;7.306;2022-07-06T06:52:48;4.63;;;0.98;;
27039;SDS011;14589;51.578;7.306;2022-07-06T06:55:13;3.20;;;1.50;;
27039;SDS011;14589;51.578;7.306;2022-07-06T06:57:38;7.60;;;1.40;;
27039;SDS011;14589;51.578;7.306;2022-07-06T07:00:04;2.85;;;1.20;;
27039;SDS011;14589;51.578;7.306;2022-07-06T07:02:30;3.22;;;1.08;;
27039;SDS011;14589;51.578;7.306;2022-07-06T07:04:56;4.53;;;1.38;;
27039;SDS011;14589;51.578;7.306;2022-07-06T07:07:21;7.78;;;1.33;;
27039;SDS011;14589;51.578;7.306;2022-07-06T07:09:46;10.35;;;1.20;;
27039;SDS011;14589;51.578;7.306;2022-07-06T07:12:12;5.95;;;1.30;;
27039;SDS011;14589;51.578;7.306;2022-07-06T07:14:40;4.65;;;1.50;;
27039;SDS011;14589;51.578;7.306;2022-07-06T07:17:06;2.65;;;1.10;;
27039;SDS011;14589;51.578;7.306;2022-07-06T07:19:31;3.75;;;1.00;;
27039;SDS011;14589;51.578;7.306;2022-07-06T07:21:56;5.25;;;1.20;;
27039;SDS011;14589;51.578;7.306;2022-07-06T07:24:22;4.97;;;1.08;;
27039;SDS011;14589;51.578;7.306;2022-07-06T07:26:47;8.13;;;1.33;;
27039;SDS011;14589;51.578;7.306;2022-07-06T07:29:13;5.45;;;1.42;;
27039;SDS011;14589;51.578;7.306;2022-07-06T07:31:38;5.28;;;1.15;;
27039;SDS011;14589;51.578;7.306;2022-07-06T07:34:03;5.57;;;0.95;;
27039;SDS011;14589;51.578;7.306;2022-07-06T07:36:29;3.70;;;1.00;;
27039;SDS011;14589;51.578;7.306;2022-07-06T07:38:54;4.45;;;1.30;;
27039;SDS011;14589;51.578;7.306;2022-07-06T07:41:20;1.75;;;0.82;;
27039;SDS011;14589;51.578;7.306;2022-07-06T07:43:45;4.47;;;0.98;;
27039;SDS011;14589;51.578;7.306;2022-07-06T07:46:11;2.17;;;0.85;;
27039;SDS011;14589;51.578;7.306;2022-07-06T07:48:36;3.45;;;1.05;;
27039;SDS011;14589;51.578;7.306;2022-07-06T07:51:02;1.30;;;0.75;;
27039;SDS011;14589;51.578;7.306;2022-07-06T07:53:28;2.30;;;0.88;;
27039;SDS011;14589;51.578;7.306;2022-07-06T07:55:53;4.13;;;0.90;;
27039;SDS011;14589;51.578;7.306;2022-07-06T07:58:19;8.93;;;1.23;;
27039;SDS011;14589;51.578;7.306;2022-07-06T08:00:44;1.30;;;0.80;;
27039;SDS011;14589;51.578;7.306;2022-07-06T08:03:11;3.42;;;0.70;;
27039;SDS011;14589;51.578;7.306;2022-07-06T08:05:36;2.30;;;0.80;;
27039;SDS011;14589;51.578;7.306;2022-07-06T08:08:01;3.53;;;1.00;;
27039;SDS011;14589;51.578;7.306;2022-07-06T08:10:27;1.75;;;0.88;;
27039;SDS011;14589;51.578;7.306;2022-07-06T08:12:53;3.63;;;1.00;;
27039;SDS011;14589;51.578;7.306;2022-07-06T08:15:18;4.03;;;0.98;;
27039;SDS011;14589;51.578;7.306;2022-07-06T08:17:43;4.38;;;1.08;;
27039;SDS011;14589;51.578;7.306;2022-07-06T08:20:10;3.42;;;1.10;;
27039;SDS011;14589;51.578;7.306;2022-07-06T08:22:36;4.70;;;1.15;;
27039;SDS011;14589;51.578;7.306;2022-07-06T08:25:01;4.13;;;0.85;;
27039;SDS011;14589;51.578;7.306;2022-07-06T08:27:27;1.70;;;0.93;;
27039;SDS011;14589;51.578;7.306;2022-07-06T08:29:53;4.72;;;1.00;;
27039;SDS011;14589;51.578;7.306;2022-07-06T08:32:18;4.93;;;0.70;;
27039;SDS011;14589;51.578;7.306;2022-07-06T08:34:45;1.42;;;0.70;;
27039;SDS011;14589;51.578;7.306;2022-07-06T08:37:11;2.78;;;1.10;;
27039;SDS011;14589;51.578;7.306;2022-07-06T08:39:36;3.33;;;0.88;;
27039;SDS011;14589;51.578;7.306;2022-07-06T08:42:02;2.08;;;0.77;;
27039;SDS011;14589;51.578;7.306;2022-07-06T08:44:28;2.80;;;0.90;;
27039;SDS011;14589;51.578;7.306;2022-07-06T08:46:54;2.42;;;0.80;;
27039;SDS011;14589;51.578;7.306;2022-07-06T08:49:21;4.00;;;0.80;;
27039;SDS011;14589;51.578;7.306;2022-07-06T08:51:48;4.93;;;0.70;;
27039;SDS011;14589;51.578;7.306;2022-07-06T08:54:13;8.70;;;1.35;;
27039;SDS011;14589;51.578;7.306;2022-07-06T08:56:39;4.25;;;1.15;;
27039;SDS011;14589;51.578;7.306;2022-07-06T08:59:05;2.03;;;0.85;;
27039;SDS011;14589;51.578;7.306;2022-07-06T09:01:33;6.97;;;0.98;;
27039;SDS011;14589;51.578;7.306;2022-07-06T09:04:00;3.10;;;1.30;;
27039;SDS011;14589;51.578;7.306;2022-07-06T09:06:28;6.05;;;1.00;;
27039;SDS011;14589;51.578;7.306;2022-07-06T09:08:55;3.28;;;0.90;;
27039;SDS011;14589;51.578;7.306;2022-07-06T09:11:22;3.88;;;0.68;;
27039;SDS011;14589;51.578;7.306;2022-07-06T09:13:48;1.33;;;0.60;;
27039;SDS011;14589;51.578;7.306;2022-07-06T09:16:15;2.38;;;0.90;;
27039;SDS011;14589;51.578;7.306;2022-07-06T09:18:44;2.35;;;0.70;;
27039;SDS011;14589;51.578;7.306;2022-07-06T09:21:10;4.22;;;0.90;;
27039;SDS011;14589;51.578;7.306;2022-07-06T09:23:36;1.80;;;0.70;;
27039;SDS011;14589;51.578;7.306;2022-07-06T09:26:02;5.75;;;0.80;;
27039;SDS011;14589;51.578;7.306;2022-07-06T09:28:44;2.47;;;0.70;;
27039;SDS011;14589;51.578;7.306;2022-07-06T09:31:11;2.85;;;0.90;;
27039;SDS011;14589;51.578;7.306;2022-07-06T09:33:37;4.45;;;1.17;;
27039;SDS011;14589;51.578;7.306;2022-07-06T09:36:03;5.70;;;1.27;;
27039;SDS011;14589;51.578;7.306;2022-07-06T09:38:30;2.28;;;0.80;;
27039;SDS011;14589;51.578;7.306;2022-07-06T09:40:57;4.82;;;1.00;;
27039;SDS011;14589;51.578;7.306;2022-07-06T09:43:23;2.45;;;0.60;;
27039;SDS011;14589;51.578;7.306;2022-07-06T09:45:49;4.20;;;0.88;;
27039;SDS011;14589;51.578;7.306;2022-07-06T09:48:17;3.17;;;0.77;;
27039;SDS011;14589;51.578;7.306;2022-07-06T09:50:44;1.17;;;0.60;;
27039;SDS011;14589;51.578;7.306;2022-07-06T09:53:12;3.60;;;1.50;;
27039;SDS011;14589;51.578;7.306;2022-07-06T09:55:38;3.15;;;0.80;;
27039;SDS011;14589;51.578;7.306;2022-07-06T09:58:03;1.52;;;0.88;;
27039;SDS011;14589;51.578;7.306;2022-07-06T10:00:29;3.13;;;0.77;;
27039;SDS011;14589;51.578;7.306;2022-07-06T10:02:55;3.72;;;0.80;;
27039;SDS011;14589;51.578;7.306;2022-07-06T10:05:21;1.08;;;0.60;;
27039;SDS011;14589;51.578;7.306;2022-07-06T10:07:52;2.15;;;0.70;;
27039;SDS011;14589;51.578;7.306;2022-07-06T10:10:17;4.03;;;0.80;;
27039;SDS011;14589;51.578;7.306;2022-07-06T10:12:44;2.47;;;0.90;;
27039;SDS011;14589;51.578;7.306;2022-07-06T10:15:10;4.10;;;0.77;;
27039;SDS011;14589;51.578;7.306;2022-07-06T10:17:36;3.08;;;0.70;;
27039;SDS011;14589;51.578;7.306;2022-07-06T10:20:04;3.95;;;0.80;;
27039;SDS011;14589;51.578;7.306;2022-07-06T10:22:31;1.50;;;0.90;;
27039;SDS011;14589;51.578;7.306;2022-07-06T10:24:56;1.88;;;0.80;;
27039;SDS011;14589;51.578;7.306;2022-07-06T10:27:24;2.10;;;0.90;;
27039;SDS011;14589;51.578;7.306;2022-07-06T10:29:50;4.70;;;0.80;;
27039;SDS011;14589;51.578;7.306;2022-07-06T10:32:17;1.52;;;0.90;;
27039;SDS011;14589;51.578;7.306;2022-07-06T10:34:44;3.88;;;0.70;;
27039;SDS011;14589;51.578;7.306;2022-07-06T10:37:18;1.75;;;0.70;;
27039;SDS011;14589;51.578;7.306;2022-07-06T10:39:47;2.60;;;0.90;;
27039;SDS011;14589;51.578;7.306;2022-07-06T10:42:55;2.70;;;0.80;;
27039;SDS011;14589;51.578;7.306;2022-07-06T10:50:40;4.18;;;0.90;;
27039;SDS011;14589;51.578;7.306;2022-07-06T10:53:42;4.72;;;0.80;;
27039;SDS011;14589;51.578;7.306;2022-07-06T10:56:04;6.90;;;1.67;;
27039;SDS011;14589;51.578;7.306;2022-07-06T11:01:03;2.60;;;0.90;;
27039;SDS011;14589;51.578;7.306;2022-07-06T11:09:00;2.67;;;0.80;;
27039;SDS011;14589;51.578;7.306;2022-07-06T11:11:26;5.63;;;0.93;;
27039;SDS011;14589;51.578;7.306;2022-07-06T11:14:16;4.78;;;1.30;;
27039;SDS011;14589;51.578;7.306;2022-07-06T11:19:18;3.22;;;1.08;;
27039;SDS011;14589;51.578;7.306;2022-07-06T11:21:51;3.08;;;0.90;;
27039;SDS011;14589;51.578;7.306;2022-07-06T11:24:17;4.38;;;1.05;;
27039;SDS011;14589;51.578;7.306;2022-07-06T11:26:45;5.03;;;0.80;;
27039;SDS011;14589;51.578;7.306;2022-07-06T11:29:12;4.40;;;1.02;;
27039;SDS011;14589;51.578;7.306;2022-07-06T11:31:41;1.90;;;0.68;;
27039;SDS011;14589;51.578;7.306;2022-07-06T11:34:09;2.92;;;0.98;;
27039;SDS011;14589;51.578;7.306;2022-07-06T11:36:35;3.55;;;0.80;;
27039;SDS011;14589;51.578;7.306;2022-07-06T11:39:01;1.67;;;0.60;;
27039;SDS011;14589;51.578;7.306;2022-07-06T11:41:26;3.15;;;0.85;;
27039;SDS011;14589;51.578;7.306;2022-07-06T11:43:51;2.47;;;0.75;;
27039;SDS011;14589;51.578;7.306;2022-07-06T11:46:24;3.80;;;0.93;;
27039;SDS011;14589;51.578;7.306;2022-07-06T11:48:51;2.87;;;1.10;;
27039;SDS011;14589;51.578;7.306;2022-07-06T11:51:21;3.55;;;1.00;;
27039;SDS011;14589;51.578;7.306;2022-07-06T11:53:50;4.88;;;0.93;;
27039;SDS011;14589;51.578;7.306;2022-07-06T11:56:17;4.15;;;0.90;;
27039;SDS011;14589;51.578;7.306;2022-07-06T11:58:44;5.03;;;1.35;;
27039;SDS011;14589;51.578;7.306;2022-07-06T12:01:12;1.35;;;0.73;;
27039;SDS011;14589;51.578;7.306;2022-07-06T12:03:38;2.42;;;0.80;;
27039;SDS011;14589;51.578;7.306;2022-07-06T12:06:12;4.53;;;0.85;;
27039;SDS011;14589;51.578;7.306;2022-07-06T12:08:46;1.33;;;0.65;;
27039;SDS011;14589;51.578;7.306;2022-07-06T12:11:20;1.50;;;0.80;;
27039;SDS011;14589;51.578;7.306;2022-07-06T12:13:48;2.60;;;0.80;;
27039;SDS011;14589;51.578;7.306;2022-07-06T12:16:15;7.43;;;1.10;;
27039;SDS011;14589;51.578;7.306;2022-07-06T12:18:42;5.00;;;0.82;;
27039;SDS011;14589;51.578;7.306;2022-07-06T12:21:10;4.82;;;1.17;;
27039;SDS011;14589;51.578;7.306;2022-07-06T12:23:41;5.10;;;1.00;;
27039;SDS011;14589;51.578;7.306;2022-07-06T12:26:09;2.70;;;0.82;;
27039;SDS011;14589;51.578;7.306;2022-07-06T12:28:35;2.13;;;0.73;;
27039;SDS011;14589;51.578;7.306;2022-07-06T12:31:01;3.17;;;0.70;;
27039;SDS011;14589;51.578;7.306;2022-07-06T12:33:27;1.40;;;0.90;;
27039;SDS011;14589;51.578;7.306;2022-07-06T12:35:53;2.30;;;0.60;;
27039;SDS011;14589;51.578;7.306;2022-07-06T12:38:25;3.08;;;0.95;;
27039;SDS011;14589;51.578;7.306;2022-07-06T12:40:52;2.10;;;0.90;;
27039;SDS011;14589;51.578;7.306;2022-07-06T12:46:27;1.20;;;0.70;;
27039;SDS011;14589;51.578;7.306;2022-07-06T12:48:58;1.88;;;0.70;;
27039;SDS011;14589;51.578;7.306;2022-07-06T12:51:25;1.13;;;0.80;;
27039;SDS011;14589;51.578;7.306;2022-07-06T12:53:51;2.80;;;0.90;;
27039;SDS011;14589;51.578;7.306;2022-07-06T12:56:17;2.90;;;0.70;;
27039;SDS011;14589;51.578;7.306;2022-07-06T12:58:56;0.90;;;0.70;;
27039;SDS011;14589;51.578;7.306;2022-07-06T13:01:25;1.40;;;0.85;;
27039;SDS011;14589;51.578;7.306;2022-07-06T13:03:54;6.43;;;0.98;;
27039;SDS011;14589;51.578;7.306;2022-07-06T13:06:30;1.95;;;0.70;;
27039;SDS011;14589;51.578;7.306;2022-07-06T13:08:57;4.30;;;0.90;;
27039;SDS011;14589;51.578;7.306;2022-07-06T13:11:23;4.10;;;0.73;;
27039;SDS011;14589;51.578;7.306;2022-07-06T13:13:49;5.22;;;1.20;;
27039;SDS011;14589;51.578;7.306;2022-07-06T13:16:15;3.58;;;1.20;;
27039;SDS011;14589;51.578;7.306;2022-07-06T13:18:41;2.30;;;1.10;;
27039;SDS011;14589;51.578;7.306;2022-07-06T13:21:06;2.28;;;0.70;;
27039;SDS011;14589;51.578;7.306;2022-07-06T13:23:32;3.13;;;0.90;;
27039;SDS011;14589;51.578;7.306;2022-07-06T13:25:57;1.35;;;0.95;;
27039;SDS011;14589;51.578;7.306;2022-07-06T13:28:23;1.98;;;0.80;;
27039;SDS011;14589;51.578;7.306;2022-07-06T13:30:48;3.03;;;0.80;;
27039;SDS011;14589;51.578;7.306;2022-07-06T13:33:14;3.63;;;0.98;;
27039;SDS011;14589;51.578;7.306;2022-07-06T13:35:39;4.60;;;1.10;;
27039;SDS011;14589;51.578;7.306;2022-07-06T13:38:04;5.55;;;1.02;;
27039;SDS011;14589;51.578;7.306;2022-07-06T13:40:30;2.45;;;1.05;;
27039;SDS011;14589;51.578;7.306;2022-07-06T13:42:55;3.90;;;1.02;;
27039;SDS011;14589;51.578;7.306;2022-07-06T13:45:20;5.55;;;1.17;;
27039;SDS011;14589;51.578;7.306;2022-07-06T13:47:46;6.25;;;0.82;;
27039;SDS011;14589;51.578;7.306;2022-07-06T13:50:11;1.90;;;0.73;;
27039;SDS011;14589;51.578;7.306;2022-07-06T13:52:37;3.90;;;0.93;;
27039;SDS011;14589;51.578;7.306;2022-07-06T13:55:03;3.45;;;1.00;;
27039;SDS011;14589;51.578;7.306;2022-07-06T13:57:29;1.00;;;0.90;;
27039;SDS011;14589;51.578;7.306;2022-07-06T13:59:55;1.70;;;0.90;;
27039;SDS011;14589;51.578;7.306;2022-07-06T14:02:20;1.52;;;0.80;;
27039;SDS011;14589;51.578;7.306;2022-07-06T14:04:45;3.92;;;1.00;;
27039;SDS011;14589;51.578;7.306;2022-07-06T14:07:11;0.88;;;0.70;;
27039;SDS011;14589;51.578;7.306;2022-07-06T14:09:36;1.40;;;0.80;;
27039;SDS011;14589;51.578;7.306;2022-07-06T14:12:02;3.17;;;0.80;;
27039;SDS011;14589;51.578;7.306;2022-07-06T14:14:28;0.82;;;0.70;;
27039;SDS011;14589;51.578;7.306;2022-07-06T14:16:53;2.05;;;0.65;;
27039;SDS011;14589;51.578;7.306;2022-07-06T14:19:19;4.45;;;1.05;;
27039;SDS011;14589;51.578;7.306;2022-07-06T14:21:48;3.03;;;0.80;;
27039;SDS011;14589;51.578;7.306;2022-07-06T14:24:14;4.82;;;1.13;;
27039;SDS011;14589;51.578;7.306;2022-07-06T14:26:39;2.45;;;0.60;;
27039;SDS011;14589;51.578;7.306;2022-07-06T14:29:05;2.45;;;0.77;;
27039;SDS011;14589;51.578;7.306;2022-07-06T14:31:30;1.05;;;0.60;;
27039;SDS011;14589;51.578;7.306;2022-07-06T14:33:56;3.05;;;0.77;;
27039;SDS011;14589;51.578;7.306;2022-07-06T14:36:21;1.75;;;0.65;;
27039;SDS011;14589;51.578;7.306;2022-07-06T14:38:47;1.65;;;0.77;;
27039;SDS011;14589;51.578;7.306;2022-07-06T14:41:12;5.75;;;0.80;;
27039;SDS011;14589;51.578;7.306;2022-07-06T14:43:38;4.55;;;0.80;;
27039;SDS011;14589;51.578;7.306;2022-07-06T14:46:04;3.03;;;0.88;;
27039;SDS011;14589;51.578;7.306;2022-07-06T14:48:29;3.58;;;0.77;;
27039;SDS011;14589;51.578;7.306;2022-07-06T14:50:55;3.83;;;0.73;;
27039;SDS011;14589;51.578;7.306;2022-07-06T14:53:20;5.65;;;1.00;;
27039;SDS011;14589;51.578;7.306;2022-07-06T14:55:46;2.10;;;0.70;;
27039;SDS011;14589;51.578;7.306;2022-07-06T14:58:12;4.25;;;1.10;;
27039;SDS011;14589;51.578;7.306;2022-07-06T15:00:38;2.55;;;0.82;;
27039;SDS011;14589;51.578;7.306;2022-07-06T15:03:03;4.30;;;0.70;;
27039;SDS011;14589;51.578;7.306;2022-07-06T15:05:29;2.97;;;0.98;;